Friday, January 18, 2019, 2:47 AM EST
Back to Local

K12N, Aeroflex-andover Airport

Location: Newton, NJ, United States Lat: 41.017
Local Time: 2:47 AM EST ( 7:47 GMT) Lon: -74.733
Time Zone: US/Eastern Elev: 583 ft

Show me the last for .
Show Decoded

2019-01-18 01:54 METAR K12N 180654Z AUTO 03003KT M04/M06 A3016 RMK AO1 SLP225 P0001 T10391056 =
2019-01-18 00:54 METAR K12N 180554Z AUTO 00000KT M04/M06 A3017 RMK AO1 SLP229 P0002 60004
                 T10391056 11022 21039 58017 =
2019-01-17 23:54 METAR K12N 180454Z AUTO 00000KT M04/M06 A3020 RMK AO1 SLP240 P0001 T10391061
                 410061072 =
2019-01-17 22:54 METAR K12N 180354Z AUTO 00000KT M04/M07 A3022 RMK AO1 SLP246 P0001 T10391067 =
2019-01-17 21:54 METAR K12N 180254Z AUTO 00000KT M03/M08 A3022 RMK AO1 SLP248 T10281083 57014 =
2019-01-17 20:54 METAR K12N 180154Z AUTO VRB03KT M03/M11 A3023 RMK AO1 SLP250 T10281106 =
2019-01-17 19:54 METAR K12N 180054Z AUTO VRB03KT M03/M12 A3025 RMK AO1 SLP260 T10281117 =
2019-01-17 18:54 METAR K12N 172354Z AUTO 16003KT M02/M13 A3026 RMK AO1 SLP262 T10221133 11006
                 21022 50003 =
2019-01-17 17:54 METAR K12N 172254Z AUTO 16004KT M02/M15 A3027 RMK AO1 SLP265 T10221150 =
2019-01-17 16:54 METAR K12N 172154Z AUTO VRB03KT M02/M17 A3025 RMK AO1 SLP259 T10171172 =
2019-01-17 15:54 METAR K12N 172054Z AUTO 00000KT M01/M16 A3025 RMK AO1 SLP258 T10111161 58019 =
2019-01-17 14:54 METAR K12N 171954Z AUTO 00000KT M01/M17 A3027 RMK AO1 SLP263 T10061172 =
2019-01-17 13:54 METAR K12N 171854Z AUTO 00000KT M02/M17 A3030 RMK AO1 SLP273 T10171167 =
2019-01-17 12:54 METAR K12N 171754Z AUTO 00000KT M02/M16 A3031 RMK AO1 SLP277 T10221161 11017
                 21072 58027 =
2019-01-17 11:54 METAR K12N 171654Z AUTO 34004KT M03/M16 A3035 RMK AO1 SLP291 T10281161 =
2019-01-17 10:54 METAR K12N 171554Z AUTO VRB03KT M03/M14 A3040 RMK AO1 SLP307 T10331144 =
2019-01-17 09:54 METAR K12N 171454Z AUTO VRB03KT M05/M13 A3039 RMK AO1 SLP305 T10501128 51015 =
2019-01-17 08:54 METAR K12N 171354Z AUTO VRB05KT M06/M13 A3038 RMK AO1 SLP300 T10611133 =
2019-01-17 07:54 METAR K12N 171254Z AUTO VRB03KT M07/M14 A3036 RMK AO1 SLP296 T10721139 =
2019-01-17 06:54 METAR K12N 171154Z AUTO 00000KT M07/M14 A3035 RMK AO1 SLP290 T10671139 11033
                 21072 53014 =
2019-01-17 05:54 METAR K12N 171054Z AUTO 35006KT M07/M14 A3033 RMK AO1 SLP283 T10671139 =
2019-01-17 04:54 METAR K12N 170954Z AUTO 35005KT M07/M14 A3031 RMK AO1 SLP278 T10671139 =
2019-01-17 03:54 METAR K12N 170854Z AUTO VRB04KT M06/M14 A3031 RMK AO1 SLP276 T10611139 50014 =
2019-01-17 02:54 METAR K12N 170754Z AUTO 33007KT M06/M14 A3031 RMK AO1 SLP276 T10561144 =

Support USWX by starting your Amazon purchase here.